createdAt,value
2017-08-15T00:00:02.533Z,18.2
2017-08-15T00:05:02.988Z,18.2
2017-08-15T00:10:02.577Z,18.2
2017-08-15T00:15:03.330Z,18.2
2017-08-15T00:20:02.769Z,18.1
2017-08-15T00:25:03.431Z,17.8
2017-08-15T00:30:02.990Z,17.7
2017-08-15T00:35:02.597Z,17.8
2017-08-15T00:40:03.205Z,17.7
2017-08-15T00:45:02.693Z,17.8
2017-08-15T00:50:03.307Z,17.7
2017-08-15T00:55:02.890Z,17.7
2017-08-15T01:00:03.459Z,17.8
2017-08-15T01:05:02.862Z,17.7
2017-08-15T01:10:02.607Z,17.7
2017-08-15T01:15:03.220Z,17.7
2017-08-15T01:20:02.693Z,17.7
2017-08-15T01:25:03.207Z,17.7
2017-08-15T01:30:02.765Z,17.7
2017-08-15T01:35:03.290Z,17.7
2017-08-15T01:40:02.724Z,17.7
2017-08-15T01:45:03.148Z,17.7
2017-08-15T01:50:02.737Z,17.7
2017-08-15T01:55:02.454Z,17.7
2017-08-15T02:00:02.971Z,17.3
2017-08-15T02:05:03.372Z,17.3
2017-08-15T02:10:02.969Z,17.3
2017-08-15T02:15:02.452Z,17.1
2017-08-15T02:20:02.936Z,17.1
2017-08-15T02:25:03.377Z,17.0
2017-08-15T02:30:03.049Z,17.0
2017-08-15T02:35:02.535Z,16.7
2017-08-15T02:40:03.006Z,16.7
2017-08-15T02:45:02.647Z,16.6
2017-08-15T02:50:03.210Z,16.3
2017-08-15T02:55:02.759Z,16.3
2017-08-15T03:00:03.330Z,16.2
2017-08-15T03:05:02.754Z,16.2
2017-08-15T03:10:02.433Z,16.2
2017-08-15T03:15:03.502Z,16.2
2017-08-15T03:20:02.980Z,16.2
2017-08-15T03:25:02.386Z,16.2
2017-08-15T03:30:03.102Z,16.2
2017-08-15T03:35:02.567Z,16.2
2017-08-15T03:40:03.236Z,16.2
2017-08-15T03:45:02.676Z,16.2
2017-08-15T03:50:03.120Z,16.2
2017-08-15T03:55:02.637Z,16.2
2017-08-15T04:00:03.211Z,16.2
2017-08-15T04:05:02.620Z,16.2
2017-08-15T04:10:02.894Z,16.2
2017-08-15T04:15:02.931Z,16.3
2017-08-15T04:20:02.984Z,16.3
2017-08-15T04:25:03.011Z,16.3
2017-08-15T04:30:03.170Z,16.2
2017-08-15T04:35:02.894Z,16.2
2017-08-15T04:40:03.062Z,16.2
2017-08-15T04:45:03.064Z,16.2
2017-08-15T04:50:03.234Z,16.2
2017-08-15T04:55:03.333Z,16.2
2017-08-15T05:00:03.330Z,16.3
2017-08-15T05:05:03.363Z,16.2
2017-08-15T05:10:02.472Z,16.3
2017-08-15T05:15:02.585Z,16.7
2017-08-15T05:20:02.763Z,16.7
2017-08-15T05:25:02.810Z,17.1
2017-08-15T05:30:03.002Z,17.3
2017-08-15T05:35:03.134Z,17.7
2017-08-15T05:40:02.580Z,18.1
2017-08-15T05:45:03.011Z,18.2
2017-08-15T05:50:02.462Z,18.2
2017-08-15T05:55:02.949Z,18.5
2017-08-15T06:00:02.383Z,18.5
2017-08-15T06:05:02.804Z,18.5
2017-08-15T06:10:02.436Z,18.7
2017-08-15T06:15:02.848Z,18.8
2017-08-15T06:20:02.361Z,18.8
2017-08-15T06:25:02.920Z,18.8
2017-08-15T06:30:02.427Z,19.1
2017-08-15T06:35:03.013Z,19.3
2017-08-15T06:40:02.476Z,20.0
2017-08-15T06:45:02.898Z,20.2
2017-08-15T06:50:02.436Z,20.6
2017-08-15T06:55:02.962Z,20.8
2017-08-15T07:00:03.351Z,20.7
2017-08-15T07:05:02.907Z,21.2
2017-08-15T07:10:02.381Z,21.2
2017-08-15T07:15:02.845Z,21.2
2017-08-15T07:20:02.455Z,21.3
2017-08-15T07:25:02.955Z,21.2
2017-08-15T07:30:03.394Z,21.3
2017-08-15T07:35:02.969Z,21.6
2017-08-15T07:40:02.463Z,21.5
2017-08-15T07:45:03.003Z,21.7
2017-08-15T07:50:02.395Z,22.0
2017-08-15T07:55:02.783Z,22.2
2017-08-15T08:00:03.247Z,22.3
2017-08-15T08:05:02.716Z,22.3
2017-08-15T08:10:03.308Z,22.5
2017-08-15T08:15:02.858Z,22.1
2017-08-15T08:20:03.352Z,22.1
2017-08-15T08:25:02.830Z,22.0
2017-08-15T08:30:03.243Z,22.0
2017-08-15T08:35:02.645Z,22.2
2017-08-15T08:40:03.291Z,22.3
2017-08-15T08:45:02.853Z,22.2
2017-08-15T08:50:03.350Z,22.5
2017-08-15T08:55:02.783Z,22.3
2017-08-15T09:00:03.348Z,22.2
2017-08-15T09:05:02.788Z,22.1
2017-08-15T09:10:03.338Z,22.5
2017-08-15T09:15:02.926Z,22.2
2017-08-15T09:20:02.404Z,22.2
2017-08-15T09:25:02.841Z,22.2
2017-08-15T09:30:02.454Z,22.0
2017-08-15T09:35:03.037Z,22.2
2017-08-15T09:40:02.675Z,22.1
2017-08-15T09:45:03.247Z,22.1
2017-08-15T09:50:02.798Z,22.2
2017-08-15T09:55:03.381Z,22.0
2017-08-15T10:00:02.879Z,22.0
2017-08-15T10:05:03.270Z,22.2
2017-08-15T10:10:02.794Z,22.0
2017-08-15T10:15:02.393Z,22.0
2017-08-15T10:20:02.894Z,22.2
2017-08-15T10:25:03.272Z,22.2
2017-08-15T10:30:02.804Z,22.7
2017-08-15T10:35:03.232Z,23.0
2017-08-15T10:40:02.703Z,23.6
2017-08-15T10:45:03.120Z,23.2
2017-08-15T10:50:02.583Z,24.0
2017-08-15T10:55:02.998Z,23.6
2017-08-15T11:00:02.499Z,23.6
2017-08-15T11:05:03.064Z,24.2
2017-08-15T11:10:02.528Z,24.8
2017-08-15T11:15:03.045Z,25.6
2017-08-15T11:20:02.522Z,26.2
2017-08-15T11:25:02.980Z,27.2
2017-08-15T11:30:03.380Z,26.7
2017-08-15T11:35:02.877Z,26.6
2017-08-15T11:40:03.377Z,27.1
2017-08-15T11:45:02.862Z,27.2
2017-08-15T11:50:02.438Z,29.0
2017-08-15T11:55:03.024Z,29.2
2017-08-15T12:00:02.456Z,28.5
2017-08-15T12:05:03.003Z,28.7
2017-08-15T12:10:02.924Z,28.2
2017-08-15T12:15:03.351Z,28.0
2017-08-15T12:20:02.990Z,28.7
2017-08-15T12:25:02.534Z,27.8
2017-08-15T12:30:03.122Z,27.3
2017-08-15T12:35:02.613Z,27.1
2017-08-15T12:40:03.207Z,26.5
2017-08-15T12:45:02.734Z,26.7
2017-08-15T12:50:03.311Z,26.2
2017-08-15T12:55:02.961Z,26.5
2017-08-15T13:00:02.395Z,27.1
2017-08-15T13:05:02.942Z,27.3
2017-08-15T13:10:02.501Z,27.7
2017-08-15T13:15:02.967Z,27.8
2017-08-15T13:20:02.462Z,27.3
2017-08-15T13:25:02.870Z,27.3
2017-08-15T13:30:02.491Z,27.2
2017-08-15T13:35:03.039Z,26.5
2017-08-15T13:40:02.602Z,26.0
2017-08-15T13:45:03.166Z,25.6
2017-08-15T13:50:02.713Z,25.2
2017-08-15T13:55:03.239Z,24.8
2017-08-15T14:00:02.711Z,24.8
2017-08-15T14:05:03.119Z,24.5
2017-08-15T14:10:02.558Z,24.6
2017-08-15T14:15:03.132Z,24.3
2017-08-15T14:20:02.605Z,24.3
2017-08-15T14:25:03.157Z,24.3
2017-08-15T14:30:02.686Z,24.3
2017-08-15T14:35:03.286Z,24.3
2017-08-15T14:40:02.850Z,24.5
2017-08-15T14:45:03.337Z,24.7
2017-08-15T14:50:02.778Z,24.6
2017-08-15T14:55:03.326Z,24.6
2017-08-15T15:00:02.761Z,24.3
2017-08-15T15:05:03.274Z,24.2
2017-08-15T15:10:02.867Z,23.8
2017-08-15T15:15:03.344Z,23.7
2017-08-15T15:20:02.793Z,23.7
2017-08-15T15:25:03.231Z,23.6
2017-08-15T15:30:02.854Z,23.3
2017-08-15T15:40:02.830Z,22.6
2017-08-15T15:45:03.293Z,22.6
2017-08-15T15:50:02.808Z,22.3
2017-08-15T15:55:02.375Z,22.5
2017-08-15T16:00:02.837Z,22.5
2017-08-15T16:05:03.364Z,22.5
2017-08-15T16:10:02.858Z,22.5
2017-08-15T16:15:02.455Z,22.5
2017-08-15T16:20:03.086Z,22.5
2017-08-15T16:25:02.537Z,22.6
2017-08-15T16:30:02.992Z,22.7
2017-08-15T16:35:02.442Z,23.0
2017-08-15T16:40:02.952Z,22.7
2017-08-15T16:45:02.442Z,22.7
2017-08-15T16:50:03.068Z,22.5
2017-08-15T16:55:02.599Z,22.2
2017-08-15T17:00:03.062Z,22.2
2017-08-15T17:05:02.620Z,22.0
2017-08-15T17:10:03.202Z,21.8
2017-08-15T17:15:02.631Z,21.7
2017-08-15T17:20:03.256Z,21.7
2017-08-15T17:25:02.692Z,21.6
2017-08-15T17:30:03.274Z,21.5
2017-08-15T17:35:02.794Z,21.5
2017-08-15T17:40:03.358Z,21.3
2017-08-15T17:45:02.782Z,21.3
2017-08-15T17:50:03.238Z,21.2
2017-08-15T17:55:02.716Z,21.2
2017-08-15T18:05:02.877Z,21.2
2017-08-15T18:10:02.398Z,21.2
2017-08-15T18:15:02.991Z,21.2
2017-08-15T18:20:02.464Z,21.0
2017-08-15T18:25:02.888Z,20.8
2017-08-15T18:30:02.464Z,20.7
2017-08-15T18:35:02.943Z,20.7
2017-08-15T18:40:02.525Z,20.7
2017-08-15T18:45:02.916Z,20.7
2017-08-15T18:50:02.492Z,20.7
2017-08-15T18:55:02.962Z,20.1
2017-08-15T19:00:02.556Z,20.2
2017-08-15T19:05:03.139Z,20.1
2017-08-15T19:10:02.750Z,20.1
2017-08-15T19:15:03.250Z,20.0
2017-08-15T19:20:02.752Z,20.0
2017-08-15T19:25:03.154Z,20.0
2017-08-15T19:30:02.712Z,19.7
2017-08-15T19:35:03.248Z,19.7
2017-08-15T19:40:02.871Z,19.7
2017-08-15T19:45:03.323Z,19.7
2017-08-15T19:50:02.943Z,19.7
2017-08-15T19:55:03.368Z,19.7
2017-08-15T20:00:02.935Z,19.5
2017-08-15T20:05:02.534Z,19.3
2017-08-15T20:10:03.089Z,19.3
2017-08-15T20:15:02.619Z,19.3
2017-08-15T20:20:03.181Z,19.2
2017-08-15T20:25:02.706Z,19.1
2017-08-15T20:30:03.246Z,19.2
2017-08-15T20:35:02.675Z,19.2
2017-08-15T20:40:03.296Z,19.3
2017-08-15T20:45:02.745Z,19.3
2017-08-15T20:50:03.368Z,19.3
2017-08-15T20:55:02.906Z,19.3
2017-08-15T21:00:02.531Z,19.5
2017-08-15T21:05:02.995Z,19.5
2017-08-15T21:10:02.602Z,19.5
2017-08-15T21:15:03.176Z,19.5
2017-08-15T21:20:02.749Z,19.5
2017-08-15T21:25:03.346Z,19.3
2017-08-15T21:30:02.775Z,19.3
2017-08-15T21:35:03.225Z,19.3
2017-08-15T21:40:02.749Z,19.3
2017-08-15T21:45:03.156Z,19.2
2017-08-15T21:50:02.560Z,19.2
2017-08-15T21:55:03.123Z,19.3
2017-08-15T22:00:02.657Z,19.3
2017-08-15T22:05:03.210Z,19.2
2017-08-15T22:10:02.825Z,19.2
2017-08-15T22:15:02.372Z,19.1
2017-08-15T22:20:02.985Z,19.2
2017-08-15T22:25:03.370Z,19.1
2017-08-15T22:30:02.880Z,19.1
2017-08-15T22:35:03.352Z,19.1
2017-08-15T22:40:02.934Z,19.0
2017-08-15T22:45:02.460Z,19.0
2017-08-15T22:50:03.127Z,18.8
2017-08-15T22:55:02.604Z,18.7
2017-08-15T23:00:03.260Z,18.7
2017-08-15T23:05:02.570Z,18.7
2017-08-15T23:10:03.069Z,18.6
2017-08-15T23:15:02.509Z,18.6
2017-08-15T23:20:03.058Z,18.5
2017-08-15T23:25:02.593Z,18.2
2017-08-15T23:30:03.075Z,18.2
2017-08-15T23:35:02.667Z,18.2
2017-08-15T23:40:03.169Z,18.1
2017-08-15T23:45:02.583Z,17.8
2017-08-15T23:50:03.152Z,17.8
2017-08-15T23:55:02.683Z,17.7
